Whitten, Iowa
Current Conditions -  °F | °C
As of 9:29 PM on Saturday 22 Nov 2014 (Local Time) from KMIW Reporting Station
Broken Clouds Broken Clouds  
Wind Chill: 52°   Ceiling: 3200
Heat Index: 52°   Visibility: 8mi
Dew Point: 50°   Wind: 13mph
Humidity: 93%   Direction: 180°S
Pressure: 29.66"   Gusts: NA
Location:  42.26°N, 93.01°W
Report Text: KMIW 230329Z AUTO 18011KT 8SM FEW021 BKN032 11/10 A2966 RMK AO2 T01110100
Loading
Personal Weather Stations






























Interactive Weather Map New forecast layout! Learn more

10-Day Weather Forecast

Advertisements
Track Severe Weather on mobile